Time;durP1;ratioP1;P1;durP2;ratioP2;P2;SDS_P1;SDS_P2;PMS_P1;PMS_P2;Temp;Humidity;BMP_temperature;BMP_pressure;BME280_temperature;BME280_humidity;BME280_pressure;Samples;Min_cycle;Max_cycle;Signal;HPM_P1;HPM_P2
2023/05/01 00:00:13;;;;;;;;;27.75;26.00;;;;;16.79;48.38;101232.66;5041394;28;45210;-74
2023/05/01 00:02:38;;;;;;;;;42.00;36.50;;;;;16.83;48.42;101244.88;5041690;28;45376;-74
2023/05/01 00:05:04;;;;;;;;;43.50;35.75;;;;;16.82;48.66;101238.72;5021203;28;45452;-74
2023/05/01 00:07:30;;;;;;;;;35.50;33.25;;;;;16.78;48.67;101233.56;5039377;28;45463;-74
2023/05/01 00:09:58;;;;;;;;;37.25;33.00;;;;;16.78;48.33;101231.78;5021208;28;45831;-73
2023/05/01 00:12:24;;;;;;;;;39.00;35.00;;;;;16.80;48.39;101229.09;5023415;28;45286;-74
2023/05/01 00:14:50;;;;;;;;;37.00;33.25;;;;;16.78;48.24;101233.56;5041207;28;45450;-74
2023/05/01 00:17:15;;;;;;;;;41.75;34.75;;;;;16.74;48.69;101231.03;5041355;28;45260;-74
2023/05/01 00:19:41;;;;;;;;;40.50;33.50;;;;;16.69;48.70;101222.34;5041095;28;45171;-74
2023/05/01 00:22:06;;;;;;;;;39.00;33.00;;;;;16.73;48.67;101228.44;5041509;28;45458;-74
2023/05/01 00:24:32;;;;;;;;;43.25;35.25;;;;;16.73;48.63;101231.94;5041148;28;45218;-74
2023/05/01 00:26:57;;;;;;;;;36.50;32.75;;;;;16.70;48.75;101225.84;5023190;28;47974;-74
2023/05/01 00:29:23;;;;;;;;;38.25;31.00;;;;;16.71;48.58;101222.28;5041015;28;45265;-74
2023/05/01 00:31:48;;;;;;;;;41.75;36.00;;;;;16.68;48.84;101222.41;5023269;28;45461;-74
2023/05/01 00:34:13;;;;;;;;;39.00;34.50;;;;;16.68;48.85;101219.75;5040700;28;45354;-74
2023/05/01 00:36:39;;;;;;;;;38.75;32.50;;;;;16.63;48.83;101213.69;5041009;28;46129;-75
2023/05/01 00:39:06;;;;;;;;;37.25;32.75;;;;;16.63;48.79;101219.88;5040826;28;45416;-74
2023/05/01 00:41:33;;;;;;;;;37.75;33.25;;;;;16.64;48.77;101211.00;5041106;28;45328;-74
2023/05/01 00:43:58;;;;;;;;;36.50;33.25;;;;;16.60;48.90;101211.16;5041000;28;45182;-74
2023/05/01 00:46:24;;;;;;;;;32.25;29.25;;;;;16.57;49.14;101210.31;5040823;28;45417;-74
2023/05/01 00:48:51;;;;;;;;;33.50;30.75;;;;;16.58;49.17;101208.56;5040563;28;45324;-74
2023/05/01 00:51:17;;;;;;;;;37.75;33.50;;;;;16.55;49.22;101201.56;5040422;28;45342;-74
2023/05/01 00:53:43;;;;;;;;;40.50;35.00;;;;;16.58;49.27;101209.41;5040610;28;45456;-74
2023/05/01 00:56:10;;;;;;;;;35.25;33.25;;;;;16.57;49.16;101207.66;5040553;28;45476;-74
2023/05/01 00:58:37;;;;;;;;;38.25;33.50;;;;;16.56;49.03;101202.41;5022677;28;45776;-74
2023/05/01 01:01:04;;;;;;;;;38.50;34.50;;;;;16.51;49.35;101194.59;5040662;28;45365;-74
2023/05/01 01:03:30;;;;;;;;;38.25;35.50;;;;;16.49;49.38;101191.16;5039221;28;45747;-74
2023/05/01 01:06:19;;;;;;;;;44.50;36.00;;;;;16.52;49.20;101184.88;5022672;28;48462;-74
2023/05/01 01:08:59;;;;;;;;;34.75;33.00;;;;;16.44;49.33;101174.50;5040477;28;45496;-74
2023/05/01 01:11:52;;;;;;;;;36.75;34.25;;;;;16.47;49.73;101178.84;5022708;28;45199;-73
2023/05/01 01:14:23;;;;;;;;;45.50;36.25;;;;;16.48;49.60;101180.59;5022463;28;45382;-74
2023/05/01 01:17:21;;;;;;;;;40.00;35.50;;;;;16.47;49.45;101177.06;5040341;28;45399;-73
2023/05/01 01:20:05;;;;;;;;;37.50;33.50;;;;;16.45;49.50;101176.22;5009305;28;45549;-74
2023/05/01 01:22:34;;;;;;;;;36.25;33.50;;;;;16.44;49.41;101174.50;5022560;28;45270;-74
2023/05/01 01:25:31;;;;;;;;;38.00;35.00;;;;;16.42;49.60;101168.38;5040108;28;45612;-74
2023/05/01 01:28:21;;;;;;;;;40.25;34.75;;;;;16.41;49.41;101170.16;5023286;28;46158;-74
2023/05/01 01:31:11;;;;;;;;;35.50;33.00;;;;;16.39;49.78;101172.00;5002199;28;45447;-74
2023/05/01 01:33:53;;;;;;;;;31.50;31.00;;;;;16.36;49.70;101163.25;5020216;28;45320;-74
2023/05/01 01:36:28;;;;;;;;;35.00;29.50;;;;;16.36;49.64;101164.16;5002245;28;45824;-74
2023/05/01 01:39:06;;;;;;;;;35.50;32.25;;;;;16.32;49.72;101158.97;5002283;28;48401;-74
2023/05/01 01:41:33;;;;;;;;;32.50;30.50;;;;;16.30;49.58;101159.03;5020326;28;45210;-75
2023/05/01 01:44:11;;;;;;;;;37.00;32.25;;;;;16.31;50.09;101162.53;5002206;28;45511;-75
2023/05/01 01:46:39;;;;;;;;;38.50;33.00;;;;;16.24;49.64;101152.13;5018693;28;45472;-74
2023/05/01 01:49:08;;;;;;;;;36.50;33.00;;;;;16.27;49.59;101155.59;5001853;28;47375;-74
2023/05/01 01:51:36;;;;;;;;;30.00;28.50;;;;;16.27;49.69;101150.31;5020173;28;45289;-74
2023/05/01 01:54:04;;;;;;;;;39.00;34.50;;;;;16.22;49.80;101148.63;5001766;28;45464;-74
2023/05/01 01:56:32;;;;;;;;;31.50;31.00;;;;;16.23;50.18;101149.53;5020036;28;45250;-74
2023/05/01 01:59:01;;;;;;;;;38.25;32.25;;;;;16.19;49.91;101150.56;5019567;28;45282;-75
2023/05/01 02:01:28;;;;;;;;;31.00;28.25;;;;;16.14;50.08;101150.69;5019749;28;45559;-75
2023/05/01 02:03:54;;;;;;;;;37.75;33.25;;;;;16.14;50.23;101152.44;5018407;28;45361;-75
2023/05/01 02:06:22;;;;;;;;;38.75;34.25;;;;;16.14;50.09;101155.97;5019960;28;45231;-74
2023/05/01 02:08:49;;;;;;;;;33.75;30.75;;;;;16.14;50.03;101160.41;5019692;28;45415;-74
2023/05/01 02:11:19;;;;;;;;;41.75;34.75;;;;;16.10;50.00;101159.66;5019601;28;45317;-75
2023/05/01 02:13:46;;;;;;;;;35.75;33.75;;;;;16.08;50.15;101158.81;5019868;28;45222;-75
2023/05/01 02:16:13;;;;;;;;;37.50;35.00;;;;;16.06;50.21;101161.53;5019559;28;45366;-75
2023/05/01 02:18:39;;;;;;;;;45.00;36.00;;;;;16.00;50.13;101155.53;5001568;28;46432;-74
2023/05/01 02:21:05;;;;;;;;;45.50;37.50;;;;;16.02;50.01;101159.00;5019600;28;45333;-75
2023/05/01 02:23:32;;;;;;;;;38.50;33.50;;;;;15.98;50.35;101158.22;5001919;28;45397;-75
2023/05/01 02:26:01;;;;;;;;;42.50;35.00;;;;;15.96;50.33;101156.53;5001654;28;46238;-76
2023/05/01 02:28:29;;;;;;;;;42.00;33.50;;;;;15.95;50.20;101152.16;5053020;28;45281;-75
2023/05/01 02:30:54;;;;;;;;;41.75;37.25;;;;;15.91;50.36;101160.19;5059539;28;45315;-75
2023/05/01 02:33:19;;;;;;;;;36.25;34.50;;;;;15.84;50.56;101150.69;5041644;28;45300;-75
2023/05/01 02:35:48;;;;;;;;;42.00;36.50;;;;;15.86;50.72;101162.13;5041216;28;45444;-75
2023/05/01 02:38:15;;;;;;;;;42.25;36.25;;;;;15.80;50.35;101159.63;5041309;28;47509;-75
2023/05/01 02:40:45;;;;;;;;;42.25;33.75;;;;;15.80;50.24;101167.56;5059169;28;45466;-75
2023/05/01 02:43:14;;;;;;;;;42.00;35.25;;;;;15.72;50.44;101165.16;5059567;28;45265;-75
2023/05/01 02:45:41;;;;;;;;;34.00;32.00;;;;;15.71;50.42;101163.41;5041229;28;45479;-75
2023/05/01 02:48:09;;;;;;;;;42.25;34.50;;;;;15.65;50.28;101157.44;5059029;28;46558;-75
2023/05/01 02:50:39;;;;;;;;;32.50;30.00;;;;;15.59;50.88;101159.31;5059144;28;45406;-75
2023/05/01 02:53:05;;;;;;;;;40.25;34.25;;;;;15.59;50.59;101161.97;5048240;28;45294;-75
2023/05/01 02:55:31;;;;;;;;;38.50;33.50;;;;;15.56;50.44;101163.84;5056226;28;45325;-75
2023/05/01 02:57:58;;;;;;;;;34.00;29.50;;;;;15.55;50.63;101164.75;5059181;28;46106;-75
2023/05/01 03:00:24;;;;;;;;;42.00;33.00;;;;;15.54;50.69;101160.38;5030909;28;45487;-76
2023/05/01 03:02:49;;;;;;;;;29.75;28.25;;;;;15.50;50.87;101169.31;5059051;28;45329;-76
2023/05/01 03:05:15;;;;;;;;;35.50;32.50;;;;;15.41;50.72;101149.25;5058513;28;57278;-75
2023/05/01 03:07:40;;;;;;;;;34.50;33.00;;;;;15.43;50.87;101158.00;5040931;28;47167;-76
2023/05/01 03:10:06;;;;;;;;;34.25;31.50;;;;;15.41;50.93;101158.06;5058754;28;45332;-76
2023/05/01 03:12:32;;;;;;;;;30.25;27.50;;;;;15.43;50.96;101169.50;5059336;28;45261;-75
2023/05/01 03:14:57;;;;;;;;;32.00;28.75;;;;;15.37;50.65;101155.53;5060006;28;45548;-76
2023/05/01 03:17:22;;;;;;;;;32.50;31.25;;;;;15.40;50.70;101163.41;5043841;28;47014;-76
2023/05/01 03:19:48;;;;;;;;;31.50;28.50;;;;;15.37;50.80;101161.72;5044111;28;45269;-76
2023/05/01 03:22:14;;;;;;;;;33.25;28.50;;;;;15.35;50.77;101167.97;5062651;28;45297;-76
2023/05/01 03:24:40;;;;;;;;;27.25;25.50;;;;;15.33;50.90;101157.38;5061953;28;45700;-76
2023/05/01 03:27:06;;;;;;;;;33.50;30.00;;;;;15.33;50.63;101159.19;5056368;28;46816;-76
2023/05/01 03:29:32;;;;;;;;;31.75;30.75;;;;;15.32;50.60;101154.78;5062277;28;45225;-76
2023/05/01 03:31:58;;;;;;;;;35.00;31.75;;;;;15.26;50.62;101151.41;5062442;28;45471;-76
2023/05/01 03:34:23;;;;;;;;;32.25;28.50;;;;;15.26;50.73;101156.69;5061788;28;45648;-77
2023/05/01 03:36:49;;;;;;;;;32.75;30.50;;;;;15.23;50.47;101154.16;5043917;28;48144;-76
2023/05/01 03:39:14;;;;;;;;;29.75;28.00;;;;;15.21;50.78;101157.75;5061882;28;45431;-76
2023/05/01 03:41:39;;;;;;;;;40.00;34.00;;;;;15.24;50.48;101160.28;5062245;28;45287;-77
2023/05/01 03:44:05;;;;;;;;;37.50;33.00;;;;;15.19;50.69;101151.63;5061898;28;45613;-77
2023/05/01 03:46:30;;;;;;;;;35.00;31.75;;;;;15.16;50.50;101152.56;5061924;28;46245;-76
2023/05/01 03:48:55;;;;;;;;;37.50;32.50;;;;;15.20;50.85;101153.34;5061659;28;45304;-76
2023/05/01 03:51:21;;;;;;;;;38.00;34.75;;;;;15.15;51.02;101156.13;5044097;28;45417;-77
2023/05/01 03:53:46;;;;;;;;;36.00;33.25;;;;;15.18;50.73;101158.69;5044816;28;45332;-77
2023/05/01 03:56:12;;;;;;;;;38.00;32.00;;;;;15.15;50.60;101158.75;5041796;28;45303;-78
2023/05/01 03:58:37;;;;;;;;;39.75;33.00;;;;;15.17;51.04;101158.72;5041336;28;47825;-77
2023/05/01 04:01:02;;;;;;;;;36.25;33.25;;;;;15.13;50.59;101160.56;5033807;28;45320;-77
2023/05/01 04:03:28;;;;;;;;;41.50;36.25;;;;;15.09;50.86;101158.94;5041305;28;45411;-77
2023/05/01 04:05:53;;;;;;;;;34.75;31.50;;;;;15.08;51.30;101166.00;5041716;28;46303;-77
2023/05/01 04:08:18;;;;;;;;;39.00;33.50;;;;;15.05;51.07;101166.06;5041332;28;45245;-77
2023/05/01 04:10:44;;;;;;;;;40.50;34.75;;;;;15.01;51.29;101166.22;5041638;28;45264;-77
2023/05/01 04:13:10;;;;;;;;;45.50;36.00;;;;;14.99;50.71;101163.59;5041378;28;45222;-78
2023/05/01 04:15:36;;;;;;;;;39.75;36.25;;;;;14.97;50.85;101175.13;5041607;28;45160;-77
2023/05/01 04:18:01;;;;;;;;;48.50;39.00;;;;;14.96;51.19;101176.91;5041139;28;45328;-77
2023/05/01 04:20:27;;;;;;;;;46.00;36.50;;;;;14.94;51.11;101176.06;5041622;28;45358;-77
2023/05/01 04:22:52;;;;;;;;;37.25;32.50;;;;;14.91;51.30;101178.81;5022201;28;46085;-78
2023/05/01 04:25:17;;;;;;;;;48.25;38.25;;;;;14.88;51.00;101173.56;5041395;28;46014;-77
2023/05/01 04:27:43;;;;;;;;;52.50;40.75;;;;;14.87;51.03;101185.94;5039993;28;45423;-78
2023/05/01 04:30:09;;;;;;;;;47.00;37.50;;;;;14.86;51.29;101183.34;5022718;28;45443;-77
2023/05/01 04:32:35;;;;;;;;;47.75;38.50;;;;;14.83;51.44;101178.13;5022954;28;45685;-78
2023/05/01 04:35:00;;;;;;;;;45.00;37.75;;;;;14.81;51.14;101179.94;5041181;28;45513;-78
2023/05/01 04:37:25;;;;;;;;;48.00;39.50;;;;;14.73;51.52;101167.78;5022989;28;45364;-77
2023/05/01 04:39:51;;;;;;;;;53.00;43.50;;;;;14.77;51.36;101185.28;5041290;28;45293;-77
2023/05/01 04:42:16;;;;;;;;;47.50;39.25;;;;;14.74;51.56;101181.84;5040893;28;45578;-78
2023/05/01 04:44:44;;;;;;;;;48.25;39.50;;;;;14.70;51.33;101177.56;5040419;28;45384;-78
2023/05/01 04:47:09;;;;;;;;;52.00;41.25;;;;;14.68;51.21;101180.25;5022322;28;45256;-79
2023/05/01 04:49:35;;;;;;;;;46.75;38.50;;;;;14.66;51.54;101182.03;5040568;28;51284;-78
2023/05/01 04:52:00;;;;;;;;;54.50;42.75;;;;;14.67;51.76;101185.59;5040456;28;45226;-79
2023/05/01 04:54:26;;;;;;;;;51.50;41.00;;;;;14.66;51.68;101183.84;5040716;28;45706;-78
2023/05/01 04:56:52;;;;;;;;;49.50;40.00;;;;;14.72;51.73;101202.22;5040571;28;45579;-79
2023/05/01 04:59:17;;;;;;;;;51.75;42.00;;;;;14.67;51.88;101204.09;5026343;28;45545;-77
2023/05/01 05:01:42;;;;;;;;;53.50;43.25;;;;;14.64;51.70;101189.13;5022819;28;45238;-79
2023/05/01 05:04:08;;;;;;;;;55.00;43.25;;;;;14.68;51.69;101192.59;5040411;28;46729;-78
2023/05/01 05:06:33;;;;;;;;;55.75;45.50;;;;;14.67;51.92;101193.50;5040514;28;45511;-78
2023/05/01 05:08:59;;;;;;;;;53.25;41.50;;;;;14.69;51.70;101195.22;5040887;28;45400;-78
2023/05/01 05:11:25;;;;;;;;;51.25;41.50;;;;;14.66;51.91;101199.72;5022464;28;45544;-78
2023/05/01 05:13:50;;;;;;;;;54.25;44.00;;;;;14.70;51.96;101206.66;5022180;28;47082;-79
2023/05/01 05:16:16;;;;;;;;;54.75;43.50;;;;;14.70;51.88;101206.66;5022247;28;45466;-80
2023/05/01 05:18:41;;;;;;;;;57.00;45.75;;;;;14.71;52.12;101216.34;5040520;28;45329;-80
2023/05/01 05:21:10;;;;;;;;;56.25;44.00;;;;;14.70;52.02;101211.94;5040368;28;45364;-81
2023/05/01 05:23:36;;;;;;;;;55.75;44.25;;;;;14.71;52.06;101214.53;5022484;28;48221;-80
2023/05/01 05:26:01;;;;;;;;;52.50;42.25;;;;;14.73;51.67;101209.22;5040120;28;45233;-80
2023/05/01 05:28:27;;;;;;;;;56.00;43.75;;;;;14.73;52.13;101209.22;5040256;28;45388;-81
2023/05/01 05:30:54;;;;;;;;;53.50;41.75;;;;;14.72;52.14;101205.72;5040144;28;45493;-82
2023/05/01 05:33:19;;;;;;;;;52.25;41.50;;;;;14.78;52.05;101210.00;5040119;28;45495;-82
2023/05/01 05:35:45;;;;;;;;;50.50;41.50;;;;;14.79;52.03;101214.34;5040204;28;45488;-82
2023/05/01 05:38:10;;;;;;;;;50.75;40.50;;;;;14.79;52.35;101219.66;5040218;28;45425;-82
2023/05/01 05:40:35;;;;;;;;;52.75;41.00;;;;;14.77;52.20;101214.41;5039940;28;45328;-82
2023/05/01 05:43:01;;;;;;;;;50.00;40.75;;;;;14.79;51.98;101219.66;5040119;28;45960;-82
2023/05/01 05:45:26;;;;;;;;;53.75;42.00;;;;;14.78;51.84;101215.28;5040087;28;45486;-81
2023/05/01 05:47:51;;;;;;;;;55.00;44.00;;;;;14.79;52.35;101215.25;5022135;28;45326;-81
2023/05/01 05:50:17;;;;;;;;;50.50;41.50;;;;;14.77;51.84;101209.09;5039980;28;45400;-81
2023/05/01 05:52:42;;;;;;;;;55.75;45.50;;;;;14.84;52.31;101215.13;5039802;28;45359;-81
2023/05/01 05:55:08;;;;;;;;;57.25;44.75;;;;;14.84;52.46;101211.59;5039228;28;45419;-82
2023/05/01 05:57:36;;;;;;;;;55.25;44.75;;;;;14.85;52.04;101211.56;5021659;28;45248;-82
2023/05/01 06:00:04;;;;;;;;;59.25;46.25;;;;;14.88;52.31;101214.16;5044144;28;45563;-82
2023/05/01 06:02:30;;;;;;;;;58.50;45.00;;;;;14.87;52.15;101209.75;5021056;28;46974;-82
2023/05/01 06:04:55;;;;;;;;;54.00;42.25;;;;;14.89;52.24;101210.59;5021685;28;45289;-81
2023/05/01 06:07:21;;;;;;;;;53.50;41.50;;;;;14.89;52.34;101207.97;5039976;28;45451;-82
2023/05/01 06:09:47;;;;;;;;;57.25;46.00;;;;;14.93;52.07;101217.53;5021660;28;45490;-82
2023/05/01 06:12:12;;;;;;;;;52.25;43.00;;;;;14.90;52.35;101214.97;5036331;28;46332;-81
2023/05/01 06:14:37;;;;;;;;;61.75;48.50;;;;;14.90;52.29;101212.31;5030941;28;45338;-81
2023/05/01 06:17:04;;;;;;;;;57.75;44.00;;;;;14.92;52.69;101226.38;5021840;28;45362;-80
2023/05/01 06:19:29;;;;;;;;;57.50;45.00;;;;;14.93;52.33;101222.84;5031221;28;45376;-81
2023/05/01 06:21:54;;;;;;;;;56.25;44.00;;;;;14.95;52.43;101225.44;5018474;28;47028;-80
2023/05/01 06:24:20;;;;;;;;;54.75;44.50;;;;;14.91;52.64;101214.06;5021404;28;45255;-80
2023/05/01 06:26:45;;;;;;;;;56.00;44.00;;;;;14.95;52.36;101217.50;5038028;28;45256;-79
2023/05/01 06:29:11;;;;;;;;;59.25;44.25;;;;;14.93;52.44;101220.19;5038681;28;45424;-80
2023/05/01 06:31:36;;;;;;;;;55.75;44.25;;;;;14.90;52.30;101206.16;5021326;28;45299;-80
2023/05/01 06:34:02;;;;;;;;;52.75;42.25;;;;;14.97;52.56;101215.69;5039023;28;46415;-79
2023/05/01 06:36:27;;;;;;;;;51.50;42.00;;;;;14.99;52.60;101227.09;5021564;28;45794;-80
2023/05/01 06:38:52;;;;;;;;;55.00;45.25;;;;;14.99;52.36;101223.59;5039634;28;45423;-80
2023/05/01 06:41:18;;;;;;;;;56.25;45.00;;;;;14.99;52.45;101223.59;5021318;28;47430;-81
2023/05/01 06:43:43;;;;;;;;;56.75;43.50;;;;;14.92;52.57;101213.16;5039278;28;45384;-80
2023/05/01 06:46:09;;;;;;;;;58.25;44.00;;;;;14.95;52.66;101226.34;5039305;28;45451;-80
2023/05/01 06:48:34;;;;;;;;;56.75;46.25;;;;;14.98;52.63;101222.75;5050827;28;45348;-80
2023/05/01 06:51:06;;;;;;;;;48.25;40.25;;;;;14.93;52.70;101220.19;5044058;28;45331;-80
2023/05/01 06:53:32;;;;;;;;;51.75;39.50;;;;;14.98;52.36;101230.69;5029896;28;45364;-80
2023/05/01 06:55:57;;;;;;;;;54.50;44.50;;;;;14.98;52.48;101229.78;5024668;28;45349;-81
2023/05/01 06:58:23;;;;;;;;;50.00;39.50;;;;;14.95;52.48;101233.38;5024495;28;45524;-82
2023/05/01 07:00:48;;;;;;;;;56.00;43.50;;;;;14.98;52.27;101235.97;5034068;28;47150;-81
2023/05/01 07:03:14;;;;;;;;;53.00;41.75;;;;;14.97;52.46;101235.97;5042288;28;45316;-81
2023/05/01 07:05:39;;;;;;;;;55.50;42.00;;;;;14.94;52.31;101224.59;5042603;28;45364;-81
2023/05/01 07:08:05;;;;;;;;;56.00;44.00;;;;;14.97;52.71;101234.22;5042401;28;45502;-81
2023/05/01 07:10:31;;;;;;;;;52.25;43.25;;;;;15.01;52.36;101235.03;5023911;28;46274;-82
2023/05/01 07:12:56;;;;;;;;;59.50;45.75;;;;;14.98;52.25;101237.72;5024406;28;46136;-81
2023/05/01 07:15:22;;;;;;;;;54.25;44.75;;;;;15.04;52.51;101248.16;5024356;28;45376;-83
2023/05/01 07:17:49;;;;;;;;;59.25;45.25;;;;;15.05;52.73;101245.47;5042108;28;45325;-81
2023/05/01 07:20:15;;;;;;;;;54.50;44.25;;;;;15.05;52.38;101250.75;5042540;28;46267;-81
2023/05/01 07:22:41;;;;;;;;;57.75;45.25;;;;;15.05;52.59;101247.25;5024220;28;45272;-81
2023/05/01 07:25:07;;;;;;;;;50.75;40.50;;;;;15.04;52.81;101257.00;5042411;28;45281;-81
2023/05/01 07:27:32;;;;;;;;;56.50;45.25;;;;;15.06;52.79;101259.59;5041699;28;45432;-82
2023/05/01 07:29:59;;;;;;;;;55.50;44.75;;;;;15.03;52.76;101249.06;5023770;28;46991;-81
2023/05/01 07:32:25;;;;;;;;;54.75;43.00;;;;;15.04;52.76;101259.63;5041535;28;45372;-81
2023/05/01 07:34:50;;;;;;;;;51.25;41.75;;;;;15.03;52.94;101247.31;5042060;28;45413;-81
2023/05/01 07:37:17;;;;;;;;;50.50;42.25;;;;;15.02;52.52;101249.97;5041970;28;45360;-84
2023/05/01 07:39:43;;;;;;;;;55.75;42.50;;;;;15.00;52.59;101242.06;5041532;28;46245;-66
2023/05/01 07:42:08;;;;;;;;;48.25;40.25;;;;;15.06;52.64;101254.31;5041544;28;45238;-65
2023/05/01 07:44:33;;;;;;;;;53.00;42.75;;;;;15.09;52.73;101251.56;5042195;28;45746;-79
2023/05/01 07:47:03;;;;;;;;;49.75;41.00;;;;;15.12;52.52;101262.09;5041671;28;45499;-65
2023/05/01 07:49:28;;;;;;;;;49.25;40.00;;;;;15.14;52.88;101260.25;5023472;28;47004;-65
2023/05/01 07:51:54;;;;;;;;;49.75;39.25;;;;;15.20;52.62;101261.91;5041498;28;45336;-62
2023/05/01 07:54:21;;;;;;;;;49.50;40.50;;;;;15.23;52.71;101265.34;5041352;28;45475;-66
2023/05/01 07:56:46;;;;;;;;;45.75;38.50;;;;;15.28;52.50;101270.50;5040139;28;45522;-70
2023/05/01 07:59:12;;;;;;;;;51.75;42.25;;;;;15.28;52.96;101263.44;5041490;28;46162;-66
2023/05/01 08:01:37;;;;;;;;;54.00;42.50;;;;;15.34;52.76;101267.69;5040040;28;45431;-66
2023/05/01 08:04:02;;;;;;;;;55.50;44.00;;;;;15.34;52.83;101266.84;5041444;28;45403;-66
2023/05/01 08:06:29;;;;;;;;;49.00;37.75;;;;;15.32;52.99;101253.66;5023280;28;45456;-67
2023/05/01 08:08:54;;;;;;;;;49.75;40.25;;;;;15.40;52.67;101261.38;5038912;28;47136;-67
2023/05/01 08:11:19;;;;;;;;;52.50;43.50;;;;;15.46;53.06;101263.88;5041066;28;45151;-67
2023/05/01 08:13:45;;;;;;;;;48.75;38.25;;;;;15.50;52.54;101251.41;5041764;28;45178;-68
2023/05/01 08:16:10;;;;;;;;;74.00;57.33;;;;;15.56;52.98;101264.50;5041190;28;46156;-67
2023/05/01 08:18:35;;;;;;;;;169.50;152.25;;;;;15.62;52.84;101263.47;5040995;28;46106;-57
2023/05/01 08:21:04;;;;;;;;;51.00;39.00;;;;;15.67;53.12;101264.19;5040685;28;58826;-66
2023/05/01 08:23:29;;;;;;;;;60.75;48.00;;;;;15.70;52.84;101269.44;5023971;28;45288;-64
2023/05/01 08:25:55;;;;;;;;;58.50;46.25;;;;;15.72;52.56;101263.19;5041075;28;45321;-66
2023/05/01 08:28:22;;;;;;;;;53.00;42.75;;;;;15.75;52.59;101270.16;5040940;28;45817;-64
2023/05/01 08:30:50;;;;;;;;;49.50;41.50;;;;;15.79;53.16;101270.97;5023006;28;45333;-63
2023/05/01 08:33:15;;;;;;;;;59.00;44.50;;;;;15.79;53.09;101274.47;5040969;28;45228;-65
2023/05/01 08:35:41;;;;;;;;;47.75;39.50;;;;;15.74;52.80;101266.63;5040633;28;45179;-63
2023/05/01 08:38:06;;;;;;;;;50.75;40.25;;;;;15.80;52.96;101273.56;5040953;28;45266;-64
2023/05/01 08:40:36;;;;;;;;;37.50;32.00;;;;;15.81;52.94;101277.06;5040398;28;55346;-65
2023/05/01 08:43:02;;;;;;;;;41.25;36.50;;;;;15.81;52.88;101275.31;5041122;28;45476;-64
2023/05/01 08:45:34;;;;;;;;;43.00;35.75;;;;;15.78;52.65;101267.41;5040743;28;45266;-64
2023/05/01 08:48:03;;;;;;;;;36.50;31.75;;;;;15.81;53.28;101274.41;5040690;28;46182;-64
2023/05/01 08:50:30;;;;;;;;;36.25;29.75;;;;;15.80;52.68;101277.97;5040665;28;45466;-64
2023/05/01 08:52:58;;;;;;;;;29.25;27.50;;;;;15.84;52.69;101285.84;5040545;28;45383;-66
2023/05/01 08:55:26;;;;;;;;;34.25;30.25;;;;;15.84;52.90;101288.50;5040087;28;45463;-63
2023/05/01 08:57:53;;;;;;;;;35.25;31.75;;;;;15.86;52.80;101289.31;5040558;28;45542;-64
2023/05/01 09:00:20;;;;;;;;;24.75;23.75;;;;;15.88;52.30;101284.84;5040496;28;45249;-64
2023/05/01 09:02:47;;;;;;;;;42.00;33.00;;;;;15.91;53.13;101308.63;5040182;28;45300;-66
2023/05/01 09:05:15;;;;;;;;;30.75;29.25;;;;;15.96;53.02;101299.66;5022186;28;45404;-67
2023/05/01 09:07:41;;;;;;;;;34.50;28.50;;;;;15.95;52.41;101297.91;5040223;28;46282;-70
2023/05/01 09:10:07;;;;;;;;;30.50;29.00;;;;;15.98;52.56;101304.00;5040205;28;45329;-65
2023/05/01 09:12:34;;;;;;;;;29.50;25.75;;;;;16.00;52.65;101299.53;5039950;28;45389;-65
2023/05/01 09:15:01;;;;;;;;;29.25;26.25;;;;;16.02;52.78;101289.75;5040010;28;45173;-66
2023/05/01 09:17:30;;;;;;;;;26.75;21.75;;;;;16.03;52.52;101294.13;5039762;28;45435;-67
2023/05/01 09:19:56;;;;;;;;;23.75;22.75;;;;;16.06;52.45;101290.53;5039722;28;45376;-67
2023/05/01 09:22:22;;;;;;;;;28.25;25.25;;;;;16.12;52.94;101294.81;5040292;28;45515;-61
2023/05/01 09:24:48;;;;;;;;;26.75;24.75;;;;;16.14;52.78;101299.16;5039855;28;45332;-62
2023/05/01 09:27:14;;;;;;;;;21.50;20.25;;;;;16.19;52.91;101302.53;5021726;28;46547;-66
2023/05/01 09:29:42;;;;;;;;;29.50;27.75;;;;;16.22;52.67;101302.44;5039720;28;45573;-66
2023/05/01 09:32:19;;;;;;;;;28.25;23.00;;;;;16.24;52.81;101299.75;5040014;28;45383;-66
2023/05/01 09:34:48;;;;;;;;;32.25;25.50;;;;;16.25;52.85;101312.06;5015246;28;45486;-70
2023/05/01 09:37:33;;;;;;;;;32.75;27.00;;;;;16.24;52.60;101305.91;5021621;28;47420;-70
2023/05/01 09:40:09;;;;;;;;;30.25;29.25;;;;;16.25;52.58;101305.00;5039820;28;45230;-69
2023/05/01 09:42:38;;;;;;;;;21.75;19.50;;;;;16.25;52.66;101306.78;5039718;28;45236;-70
2023/05/01 09:45:05;;;;;;;;;31.25;25.75;;;;;16.28;52.65;101311.16;5039712;28;45436;-62
2023/05/01 09:47:33;;;;;;;;;24.75;23.25;;;;;16.24;52.62;101303.28;5039300;28;46235;-66
2023/05/01 09:49:58;;;;;;;;;25.75;25.50;;;;;16.28;52.86;101311.16;5040030;28;45395;-61
2023/05/01 09:52:28;;;;;;;;;22.25;22.00;;;;;16.30;52.69;101320.81;5039203;28;45408;-61
2023/05/01 09:55:17;;;;;;;;;23.25;21.75;;;;;16.27;52.85;101318.22;5039460;28;45407;-68
2023/05/01 09:57:44;;;;;;;;;24.50;22.75;;;;;16.26;53.02;101316.47;5039499;28;45933;-66
2023/05/01 10:00:11;;;;;;;;;29.00;24.00;;;;;16.25;52.49;101320.91;5044014;28;45396;-71
2023/05/01 10:02:37;;;;;;;;;29.50;26.75;;;;;16.24;52.80;101316.53;5021640;28;45465;-67
2023/05/01 10:05:03;;;;;;;;;23.00;20.00;;;;;16.22;53.03;101318.34;5059682;28;45364;-71
2023/05/01 10:07:29;;;;;;;;;23.75;21.25;;;;;16.20;52.73;101317.53;5059178;28;45956;-76
2023/05/01 10:09:54;;;;;;;;;19.75;16.75;;;;;16.17;52.92;101314.97;5040940;28;45373;-73
2023/05/01 10:12:28;;;;;;;;;19.00;17.25;;;;;16.21;53.05;101329.88;5059892;28;45565;-62
2023/05/01 10:14:55;;;;;;;;;23.25;20.25;;;;;16.17;52.76;101320.25;5059594;28;45541;-62
2023/05/01 10:17:21;;;;;;;;;19.00;17.75;;;;;16.20;52.88;101322.84;5040979;28;45423;-75
2023/05/01 10:19:47;;;;;;;;;13.00;10.75;;;;;16.23;53.18;101309.47;5059265;28;45321;-73
2023/05/01 10:22:14;;;;;;;;;20.75;18.25;;;;;16.25;52.68;101320.91;5059855;28;45392;-71
2023/05/01 10:24:40;;;;;;;;;13.00;12.00;;;;;16.29;52.96;101319.06;5060164;28;45550;-70
2023/05/01 10:27:07;;;;;;;;;18.75;15.00;;;;;16.33;52.68;101317.19;5028308;28;47295;-70
2023/05/01 10:29:35;;;;;;;;;16.25;14.25;;;;;16.36;52.97;101310.00;5062735;28;45182;-69
2023/05/01 10:32:03;;;;;;;;;8.75;7.75;;;;;16.38;52.88;101313.47;5044959;28;45345;-72
2023/05/01 10:34:30;;;;;;;;;83.00;74.00;;;;;16.40;52.67;101308.13;5062303;28;45364;-70
2023/05/01 10:37:01;;;;;;;;;8.75;8.25;;;;;16.40;52.67;101303.69;5063000;28;45850;-71
2023/05/01 10:39:31;;;;;;;;;12.75;12.25;;;;;16.45;52.81;101318.59;5062446;28;45315;-68
2023/05/01 10:41:57;;;;;;;;;77.50;66.75;;;;;16.47;52.74;101316.78;5062513;28;45326;-68
2023/05/01 10:44:24;;;;;;;;;80.00;67.33;;;;;16.42;52.90;101304.50;5062803;28;45139;-68
2023/05/01 10:46:49;;;;;;;;;45.50;37.00;;;;;16.48;53.00;101316.72;5062598;28;45582;-69
2023/05/01 10:49:16;;;;;;;;;250.75;219.50;;;;;16.43;52.86;101305.38;5062026;28;45334;-67
2023/05/01 10:51:57;;;;;;;;;19.25;15.25;;;;;16.51;53.18;101308.66;5028030;28;45331;-73
2023/05/01 10:54:31;;;;;;;;;15.75;13.75;;;;;16.52;52.89;101314.84;5030728;28;45230;-71
2023/05/01 10:57:00;;;;;;;;;14.75;13.50;;;;;16.52;53.23;101304.25;5024329;28;47027;-78
2023/05/01 10:59:26;;;;;;;;;18.25;13.50;;;;;16.50;53.22;101303.41;5042482;28;45391;-72
2023/05/01 11:01:51;;;;;;;;;13.00;11.25;;;;;16.55;52.71;101307.69;5043714;28;45568;-70
2023/05/01 11:04:28;;;;;;;;;11.75;11.75;;;;;16.58;53.30;101306.72;5062286;28;45430;-71
2023/05/01 11:07:09;;;;;;;;;10.25;10.25;;;;;16.61;53.29;101301.31;5062389;28;45381;-71
2023/05/01 11:09:43;;;;;;;;;10.75;9.00;;;;;16.63;53.10;101302.13;5062313;28;45419;-70